Tekamah, Nebraska
Current Conditions -  °F | °C
As of 1:54 PM on Monday 26 Jan 2015 (Local Time) from KTQE Reporting Station
Clear Clear  
Wind Chill: 56°   Ceiling: Unl
Heat Index: 56°   Visibility: 10mi
Dew Point: 39°   Wind: 20mph
Humidity: 53%   Direction: 310°NW
Pressure: 29.92"   Gusts: 28mph
Location:  41.78°N, 96.22°W
Report Text: KTQE 261954Z AUTO 31017G24KT 10SM CLR 13/04 A2992 RMK AO2 SLP133 T01330039
Loading
Personal Weather Stations






























Interactive Weather Map New forecast layout! Learn more

10-Day Weather Forecast

Advertisements
Track Severe Weather on mobile